Time;durP1;ratioP1;P1;durP2;ratioP2;P2;SDS_P1;SDS_P2;PMS_P1;PMS_P2;Temp;Humidity;BMP_temperature;BMP_pressure;BME280_temperature;BME280_humidity;BME280_pressure;Samples;Min_cycle;Max_cycle;Signal;HPM_P1;HPM_P2
2023/06/09 00:00:55;;;;;;;7.30;6.60;;;;;19.10;98324.00;;;;5071802;28;20076;-64
2023/06/09 00:03:22;;;;;;;9.95;7.68;;;;;19.10;98319.00;;;;5071957;28;20052;-63
2023/06/09 00:05:49;;;;;;;7.28;6.57;;;;;19.00;98320.00;;;;5071930;28;20449;-64
2023/06/09 00:08:16;;;;;;;7.57;6.75;;;;;18.90;98312.00;;;;5070933;28;20040;-61
2023/06/09 00:10:42;;;;;;;7.50;6.78;;;;;18.90;98310.00;;;;5071074;28;20048;-64
2023/06/09 00:13:09;;;;;;;10.25;7.20;;;;;18.90;98308.00;;;;5070835;28;20076;-63
2023/06/09 00:15:36;;;;;;;8.32;6.85;;;;;18.90;98306.00;;;;5070506;28;20080;-63
2023/06/09 00:18:04;;;;;;;8.45;6.70;;;;;18.60;98301.00;;;;5070470;28;20444;-63
2023/06/09 00:20:33;;;;;;;8.27;7.10;;;;;18.40;98298.00;;;;5054026;28;20049;-63
2023/06/09 00:23:01;;;;;;;9.30;7.47;;;;;18.40;98299.00;;;;5070301;28;20044;-63
2023/06/09 00:25:28;;;;;;;7.45;6.75;;;;;18.40;98300.00;;;;5071393;28;20044;-63
2023/06/09 00:27:54;;;;;;;8.25;7.05;;;;;18.20;98293.00;;;;5071794;28;20124;-63
2023/06/09 00:30:22;;;;;;;8.57;7.32;;;;;18.30;98288.00;;;;5071336;28;20055;-63
2023/06/09 00:33:05;;;;;;;;;;;;;18.30;98295.00;;;;5072056;28;20040;-63
2023/06/09 00:35:32;;;;;;;8.48;7.03;;;;;18.20;98287.00;;;;5070207;28;19963;-64
2023/06/09 00:37:58;;;;;;;7.50;6.80;;;;;18.20;98286.00;;;;5069997;28;20049;-64
2023/06/09 00:40:25;;;;;;;8.55;7.55;;;;;18.20;98292.00;;;;5071271;28;20047;-63
2023/06/09 00:42:53;;;;;;;9.82;7.25;;;;;18.20;98289.00;;;;5070228;28;20073;-63
2023/06/09 00:45:20;;;;;;;9.45;7.85;;;;;18.10;98283.00;;;;5074531;28;20102;-63
2023/06/09 00:47:47;;;;;;;10.32;7.53;;;;;18.10;98284.00;;;;5073952;28;20055;-63
2023/06/09 00:50:19;;;;;;;9.23;7.15;;;;;18.20;98289.00;;;;5073871;28;20493;-63
2023/06/09 00:52:47;;;;;;;8.05;7.25;;;;;18.10;98291.00;;;;5073918;28;20048;-63
2023/06/09 00:55:14;;;;;;;7.90;7.10;;;;;17.90;98288.00;;;;5057029;28;20059;-62
2023/06/09 00:57:46;;;;;;;9.18;7.60;;;;;17.80;98281.00;;;;5073701;28;20556;-63
2023/06/09 01:00:16;;;;;;;8.38;7.57;;;;;17.90;98280.00;;;;5073463;28;20070;-63
2023/06/09 01:02:43;;;;;;;8.88;7.07;;;;;18.00;98288.00;;;;5074732;28;20068;-62
2023/06/09 01:05:12;;;;;;;9.35;7.43;;;;;17.80;98292.00;;;;5074827;28;20052;-62
2023/06/09 01:07:46;;;;;;;8.88;7.30;;;;;17.60;98292.00;;;;5072996;28;20513;-63
2023/06/09 01:10:30;;;;;;;12.75;7.13;;;;;17.50;98296.00;;;;5056791;28;20041;-62
2023/06/09 01:13:16;;;;;;;8.95;7.28;;;;;17.50;98292.00;;;;5074643;28;20102;-62
2023/06/09 01:15:53;;;;;;;8.10;7.30;;;;;17.50;98287.00;;;;5073448;28;20052;-62
2023/06/09 01:18:24;;;;;;;9.10;7.63;;;;;17.50;98293.00;;;;5073418;28;20558;-64
2023/06/09 01:21:06;;;;;;;9.85;7.53;;;;;17.50;98296.00;;;;5073297;28;20052;-63
2023/06/09 01:23:44;;;;;;;8.27;7.05;;;;;17.40;98290.00;;;;5073385;28;20417;-63
2023/06/09 01:26:12;;;;;;;8.43;7.00;;;;;17.40;98289.00;;;;5056958;28;20072;-62
2023/06/09 01:28:40;;;;;;;9.18;7.28;;;;;17.40;98282.00;;;;5076167;28;20075;-63
2023/06/09 01:31:11;;;;;;;8.88;7.78;;;;;17.40;98279.00;;;;5076392;28;20044;-62
2023/06/09 01:33:38;;;;;;;8.27;7.45;;;;;17.40;98275.00;;;;5074254;28;20051;-62
2023/06/09 01:36:05;;;;;;;10.15;8.05;;;;;17.40;98274.00;;;;5075895;28;20655;-62
2023/06/09 01:38:32;;;;;;;7.80;7.03;;;;;17.30;98282.00;;;;5074303;28;20044;-62
2023/06/09 01:40:59;;;;;;;7.80;7.00;;;;;17.10;98284.00;;;;5056408;28;20045;-65
2023/06/09 01:43:25;;;;;;;9.50;7.50;;;;;17.10;98271.00;;;;5074574;28;20055;-64
2023/06/09 01:45:52;;;;;;;8.30;7.35;;;;;17.20;98282.00;;;;5074093;28;20040;-63
2023/06/09 01:48:30;;;;;;;8.50;7.70;;;;;17.10;98273.00;;;;5072691;28;20041;-64
2023/06/09 01:51:06;;;;;;;8.70;7.60;;;;;17.10;98269.00;;;;5073982;28;20098;-63
2023/06/09 01:53:36;;;;;;;8.18;7.38;;;;;17.00;98270.00;;;;5072721;28;20463;-63
2023/06/09 01:56:06;;;;;;;8.27;7.47;;;;;17.10;98268.00;;;;5071905;28;20048;-63
2023/06/09 01:58:42;;;;;;;8.30;7.50;;;;;16.90;98268.00;;;;5055854;28;20136;-63
2023/06/09 02:01:10;;;;;;;8.45;7.65;;;;;16.70;98272.00;;;;5072236;28;20128;-65
2023/06/09 02:03:40;;;;;;;9.95;7.93;;;;;16.70;98278.00;;;;5055865;28;20135;-63
2023/06/09 02:06:10;;;;;;;8.85;7.78;;;;;16.80;98274.00;;;;5072263;28;20075;-63
2023/06/09 02:08:37;;;;;;;8.90;7.50;;;;;16.80;98270.00;;;;5072264;28;20045;-64
2023/06/09 02:11:04;;;;;;;8.43;7.60;;;;;16.80;98269.00;;;;5071993;28;20127;-63
2023/06/09 02:13:31;;;;;;;8.73;7.82;;;;;16.70;98275.00;;;;5073498;28;20079;-63
2023/06/09 02:15:57;;;;;;;9.10;8.10;;;;;16.60;98271.00;;;;5055364;28;20049;-64
2023/06/09 02:18:24;;;;;;;8.35;7.45;;;;;16.60;98279.00;;;;5073401;28;20634;-63
2023/06/09 02:20:52;;;;;;;8.45;7.47;;;;;16.60;98270.00;;;;5071896;28;20071;-64
2023/06/09 02:23:22;;;;;;;9.82;7.82;;;;;16.60;98266.00;;;;5071858;28;20044;-64
2023/06/09 02:25:49;;;;;;;8.45;7.65;;;;;16.50;98262.00;;;;5073091;28;20080;-65
2023/06/09 02:28:16;;;;;;;8.60;7.80;;;;;16.50;98275.00;;;;5071831;28;20080;-65
2023/06/09 02:30:44;;;;;;;8.13;7.32;;;;;16.50;98263.00;;;;5071617;28;20078;-64
2023/06/09 02:33:14;;;;;;;9.35;7.50;;;;;16.50;98264.00;;;;5073476;28;20047;-64
2023/06/09 02:35:41;;;;;;;8.07;7.22;;;;;16.60;98260.00;;;;5073358;28;20404;-63
2023/06/09 02:38:09;;;;;;;9.43;7.95;;;;;16.60;98256.00;;;;5055480;28;20512;-64
2023/06/09 02:40:35;;;;;;;9.20;7.95;;;;;16.40;98261.00;;;;5071255;28;20110;-63
2023/06/09 02:43:02;;;;;;;8.60;7.65;;;;;16.40;98259.00;;;;5071662;28;20051;-63
2023/06/09 02:45:29;;;;;;;8.05;7.25;;;;;16.50;98255.00;;;;5072839;28;20544;-64
2023/06/09 02:47:56;;;;;;;9.30;7.57;;;;;16.50;98252.00;;;;5071824;28;20040;-63
2023/06/09 02:50:23;;;;;;;9.25;7.95;;;;;16.60;98258.00;;;;5071439;28;20523;-64
2023/06/09 02:52:54;;;;;;;8.32;7.57;;;;;16.50;98260.00;;;;5071677;28;20044;-63
2023/06/09 02:55:22;;;;;;;8.82;7.93;;;;;16.60;98252.00;;;;5071757;28;20044;-64
2023/06/09 02:57:50;;;;;;;10.43;8.40;;;;;16.70;98257.00;;;;5055195;28;20501;-63
2023/06/09 03:00:20;;;;;;;8.63;7.82;;;;;16.70;98255.00;;;;5071302;28;20135;-63
2023/06/09 03:02:51;;;;;;;10.55;8.02;;;;;16.70;98255.00;;;;5055473;28;20053;-63
2023/06/09 03:05:20;;;;;;;9.18;8.20;;;;;16.60;98249.00;;;;5055628;28;20041;-64
2023/06/09 03:07:49;;;;;;;9.27;7.90;;;;;16.30;98256.00;;;;5071217;28;20048;-63
2023/06/09 03:10:16;;;;;;;8.95;7.85;;;;;16.30;98254.00;;;;5054742;28;20493;-63
2023/06/09 03:12:44;;;;;;;9.02;8.07;;;;;16.20;98249.00;;;;5071813;28;20051;-64
2023/06/09 03:15:11;;;;;;;9.05;7.85;;;;;16.30;98252.00;;;;5071298;28;20394;-63
2023/06/09 03:17:41;;;;;;;11.05;8.65;;;;;16.30;98255.00;;;;5054965;28;20044;-64
2023/06/09 03:20:09;;;;;;;10.25;8.30;;;;;16.40;98250.00;;;;5070857;28;20052;-63
2023/06/09 03:22:36;;;;;;;10.48;7.72;;;;;16.30;98256.00;;;;5054772;28;20056;-63
2023/06/09 03:25:04;;;;;;;12.43;8.63;;;;;16.30;98256.00;;;;5054689;28;20049;-64
2023/06/09 03:27:31;;;;;;;12.77;8.32;;;;;16.30;98259.00;;;;5072438;28;20044;-63
2023/06/09 03:29:57;;;;;;;12.25;9.68;;;;;16.30;98256.00;;;;5054858;28;20081;-64
2023/06/09 03:32:24;;;;;;;10.95;7.53;;;;;16.20;98252.00;;;;5071268;28;20047;-63
2023/06/09 03:34:52;;;;;;;11.15;8.63;;;;;16.30;98256.00;;;;5072100;28;20500;-65
2023/06/09 03:37:19;;;;;;;8.77;7.60;;;;;16.40;98254.00;;;;5071002;28;20422;-64
2023/06/09 03:39:46;;;;;;;9.70;8.50;;;;;16.50;98256.00;;;;5070587;28;20579;-65
2023/06/09 03:42:17;;;;;;;9.30;8.30;;;;;16.40;98260.00;;;;5070728;28;20090;-64
2023/06/09 03:44:44;;;;;;;8.65;7.78;;;;;16.40;98256.00;;;;5070602;28;20074;-64
2023/06/09 03:47:10;;;;;;;8.55;7.47;;;;;16.30;98255.00;;;;5070478;28;20066;-64
2023/06/09 03:49:38;;;;;;;8.77;7.38;;;;;16.30;98267.00;;;;5054072;28;20040;-64
2023/06/09 03:52:06;;;;;;;9.25;8.30;;;;;16.30;98265.00;;;;5070597;28;20049;-65
2023/06/09 03:54:34;;;;;;;8.63;7.72;;;;;16.40;98268.00;;;;5070527;28;20098;-63
2023/06/09 03:57:01;;;;;;;9.00;8.07;;;;;16.40;98258.00;;;;5070486;28;20505;-64
2023/06/09 03:59:28;;;;;;;9.20;8.23;;;;;16.50;98260.00;;;;5069907;28;20040;-64
2023/06/09 04:01:55;;;;;;;8.65;7.55;;;;;16.60;98257.00;;;;5070490;28;20459;-63
2023/06/09 04:04:23;;;;;;;9.40;8.43;;;;;16.70;98263.00;;;;5070558;28;20448;-64
2023/06/09 04:06:50;;;;;;;10.20;8.57;;;;;16.60;98265.00;;;;5071726;28;20497;-62
2023/06/09 04:09:20;;;;;;;10.07;8.25;;;;;16.60;98270.00;;;;5070372;28;20079;-62
2023/06/09 04:11:47;;;;;;;8.32;7.53;;;;;16.60;98265.00;;;;5070584;28;20444;-62
2023/06/09 04:14:13;;;;;;;10.23;8.57;;;;;16.70;98272.00;;;;5070414;28;20424;-65
2023/06/09 04:16:41;;;;;;;11.50;9.60;;;;;16.70;98274.00;;;;5053953;28;20083;-62
2023/06/09 04:19:08;;;;;;;10.32;8.40;;;;;16.70;98265.00;;;;5056981;28;20086;-63
2023/06/09 04:21:37;;;;;;;10.65;8.48;;;;;16.80;98268.00;;;;5074414;28;20059;-63
2023/06/09 04:24:04;;;;;;;9.80;8.80;;;;;16.90;98267.00;;;;5074158;28;20076;-62
2023/06/09 04:26:32;;;;;;;10.73;9.35;;;;;16.90;98270.00;;;;5074061;28;20102;-64
2023/06/09 04:28:59;;;;;;;12.88;9.05;;;;;16.90;98269.00;;;;5073805;28;20047;-63
2023/06/09 04:31:33;;;;;;;9.57;8.07;;;;;16.90;98269.00;;;;5074033;28;20079;-65
2023/06/09 04:34:10;;;;;;;12.32;10.52;;;;;17.10;98267.00;;;;5073887;28;20048;-63
2023/06/09 04:36:39;;;;;;;10.80;8.75;;;;;17.20;98270.00;;;;5073964;28;20048;-62
2023/06/09 04:39:09;;;;;;;9.82;8.75;;;;;17.30;98261.00;;;;5073624;28;20563;-63
2023/06/09 04:41:37;;;;;;;13.57;8.18;;;;;17.40;98269.00;;;;5057406;28;20413;-63
2023/06/09 04:44:05;;;;;;;9.68;8.68;;;;;17.50;98262.00;;;;5073963;28;20049;-62
2023/06/09 04:46:37;;;;;;;14.32;9.98;;;;;17.30;98258.00;;;;5057917;28;20044;-63
2023/06/09 04:49:09;;;;;;;15.13;12.40;;;;;17.40;98257.00;;;;5073495;28;20520;-63
2023/06/09 04:51:46;;;;;;;10.93;9.10;;;;;17.50;98265.00;;;;5073470;28;20056;-64
2023/06/09 04:54:17;;;;;;;14.90;10.55;;;;;17.50;98268.00;;;;5057529;28;20052;-63
2023/06/09 04:56:52;;;;;;;11.73;10.05;;;;;17.60;98270.00;;;;5057020;28;20528;-62
2023/06/09 04:59:22;;;;;;;13.50;10.35;;;;;17.70;98263.00;;;;5072980;28;20052;-63
2023/06/09 05:01:48;;;;;;;14.27;10.82;;;;;17.80;98256.00;;;;5056917;28;20072;-62
2023/06/09 05:04:17;;;;;;;11.40;10.02;;;;;17.90;98262.00;;;;5073422;28;20127;-63
2023/06/09 05:06:44;;;;;;;13.05;10.88;;;;;17.90;98265.00;;;;5073332;28;20056;-62
2023/06/09 05:09:12;;;;;;;11.48;9.98;;;;;18.00;98262.00;;;;5073115;28;20044;-62
2023/06/09 05:11:40;;;;;;;13.38;9.93;;;;;18.00;98279.00;;;;5073288;28;20054;-63
2023/06/09 05:14:07;;;;;;;13.65;11.00;;;;;18.20;98267.00;;;;5056871;28;20659;-64
2023/06/09 05:16:35;;;;;;;12.48;10.90;;;;;18.30;98269.00;;;;5073130;28;20520;-63
2023/06/09 05:19:04;;;;;;;15.23;10.18;;;;;18.20;98263.00;;;;5072993;28;20052;-63
2023/06/09 05:21:31;;;;;;;12.65;10.13;;;;;18.40;98269.00;;;;5073196;28;20066;-63
2023/06/09 05:23:57;;;;;;;11.57;10.10;;;;;18.60;98272.00;;;;5073151;28;20048;-63
2023/06/09 05:26:25;;;;;;;12.15;10.82;;;;;18.70;98287.00;;;;5073265;28;20044;-64
2023/06/09 05:28:52;;;;;;;10.55;9.55;;;;;18.70;98281.00;;;;5072438;28;20123;-64
2023/06/09 05:31:19;;;;;;;11.65;10.45;;;;;18.70;98281.00;;;;5057703;28;20044;-64
2023/06/09 05:33:46;;;;;;;11.80;9.95;;;;;18.70;98284.00;;;;5079096;28;20044;-63
2023/06/09 05:36:13;;;;;;;11.02;9.77;;;;;18.80;98287.00;;;;5059995;28;20056;-63
2023/06/09 05:38:45;;;;;;;12.73;10.07;;;;;18.90;98281.00;;;;5073036;28;20072;-62
2023/06/09 05:41:14;;;;;;;13.07;9.43;;;;;18.90;98278.00;;;;5073629;28;20036;-63
2023/06/09 05:43:41;;;;;;;11.10;10.00;;;;;19.00;98286.00;;;;5074137;28;20049;-63
2023/06/09 05:46:07;;;;;;;10.73;8.85;;;;;19.10;98289.00;;;;5073937;28;20161;-63
2023/06/09 05:48:34;;;;;;;9.70;8.80;;;;;19.10;98285.00;;;;5073088;28;20060;-61
2023/06/09 05:51:00;;;;;;;11.25;9.38;;;;;19.30;98285.00;;;;5074151;28;20044;-61
2023/06/09 05:53:27;;;;;;;10.02;8.93;;;;;19.30;98282.00;;;;5074889;28;20037;-62
2023/06/09 05:55:54;;;;;;;9.63;8.10;;;;;19.40;98286.00;;;;5074265;28;20056;-62
2023/06/09 05:58:20;;;;;;;10.05;9.02;;;;;19.60;98274.00;;;;5057993;28;20174;-60
2023/06/09 06:00:49;;;;;;;9.25;8.18;;;;;19.50;98283.00;;;;5074213;28;20036;-62
2023/06/09 06:03:15;;;;;;;10.02;8.60;;;;;19.60;98282.00;;;;5073789;28;20049;-62
2023/06/09 06:05:44;;;;;;;8.95;8.02;;;;;19.80;98282.00;;;;5074229;28;20127;-62
2023/06/09 06:08:11;;;;;;;8.90;7.97;;;;;19.80;98288.00;;;;5072763;28;20053;-62
2023/06/09 06:10:37;;;;;;;8.05;7.25;;;;;19.80;98282.00;;;;5073398;28;20128;-62
2023/06/09 06:13:04;;;;;;;9.02;8.10;;;;;19.80;98282.00;;;;5073447;28;20051;-62
2023/06/09 06:15:31;;;;;;;8.85;7.35;;;;;20.00;98285.00;;;;5073401;28;20045;-63
2023/06/09 06:17:57;;;;;;;8.38;7.57;;;;;20.10;98283.00;;;;5073262;28;20497;-65
2023/06/09 06:20:24;;;;;;;9.95;7.93;;;;;20.20;98293.00;;;;5072924;28;20493;-63
2023/06/09 06:22:51;;;;;;;7.75;7.05;;;;;20.30;98284.00;;;;5055055;28;20083;-63
2023/06/09 06:25:18;;;;;;;8.60;6.95;;;;;20.30;98285.00;;;;5071719;28;20044;-64
2023/06/09 06:27:44;;;;;;;8.65;7.40;;;;;20.30;98282.00;;;;5071854;28;20044;-64
2023/06/09 06:30:14;;;;;;;18.02;7.43;;;;;20.40;98294.00;;;;5072747;28;20033;-64
2023/06/09 06:32:51;;;;;;;10.35;8.57;;;;;20.60;98296.00;;;;5072903;28;20040;-64
2023/06/09 06:35:26;;;;;;;10.77;9.68;;;;;20.70;98296.00;;;;5071781;28;20469;-64
2023/06/09 06:37:53;;;;;;;9.55;6.82;;;;;20.70;98296.00;;;;5072515;28;20045;-64
2023/06/09 06:40:20;;;;;;;9.63;7.35;;;;;20.80;98296.00;;;;5054191;28;20459;-64
2023/06/09 06:42:46;;;;;;;7.80;6.47;;;;;20.90;98298.00;;;;5075402;28;20051;-64
2023/06/09 06:45:22;;;;;;;7.47;6.78;;;;;20.90;98296.00;;;;5077794;28;20109;-64
2023/06/09 06:47:49;;;;;;;9.65;6.88;;;;;20.90;98298.00;;;;5074252;28;20048;-64
2023/06/09 06:50:16;;;;;;;6.72;6.03;;;;;20.90;98285.00;;;;5073190;28;20041;-64
2023/06/09 06:52:43;;;;;;;7.47;6.78;;;;;20.90;98293.00;;;;5073507;28;20064;-63
2023/06/09 06:55:10;;;;;;;7.75;6.72;;;;;21.00;98299.00;;;;5075222;28;20736;-63
2023/06/09 06:57:38;;;;;;;7.70;6.82;;;;;21.10;98304.00;;;;5077006;28;20053;-64
2023/06/09 07:00:09;;;;;;;10.70;6.95;;;;;21.20;98298.00;;;;5076308;28;20097;-63
2023/06/09 07:02:37;;;;;;;9.63;7.15;;;;;21.20;98298.00;;;;5077281;28;20173;-64
2023/06/09 07:05:06;;;;;;;7.78;6.13;;;;;21.30;98302.00;;;;5075981;28;20120;-63
2023/06/09 07:07:33;;;;;;;7.28;6.57;;;;;21.30;98297.00;;;;5077510;28;20048;-64
2023/06/09 07:10:00;;;;;;;6.95;6.25;;;;;21.40;98295.00;;;;5076280;28;20040;-63
2023/06/09 07:12:27;;;;;;;7.20;6.38;;;;;21.50;98299.00;;;;5077109;28;20070;-63
2023/06/09 07:14:57;;;;;;;6.82;6.13;;;;;21.80;98303.00;;;;5076253;28;20044;-63
2023/06/09 07:17:25;;;;;;;6.97;6.38;;;;;21.70;98301.00;;;;5058895;28;20041;-64
2023/06/09 07:19:52;;;;;;;8.95;6.45;;;;;21.70;98303.00;;;;5076158;28;20098;-63
2023/06/09 07:22:18;;;;;;;7.00;6.30;;;;;21.80;98300.00;;;;5076280;28;20108;-63
2023/06/09 07:24:46;;;;;;;8.10;6.65;;;;;21.90;98306.00;;;;5076031;28;20120;-64
2023/06/09 07:27:13;;;;;;;7.70;6.90;;;;;22.00;98319.00;;;;5075439;28;20076;-64
2023/06/09 07:29:41;;;;;;;7.45;6.68;;;;;22.00;98316.00;;;;5075364;28;20044;-64
2023/06/09 07:32:09;;;;;;;7.25;5.68;;;;;22.00;98315.00;;;;5073577;28;20147;-64
2023/06/09 07:34:37;;;;;;;8.85;6.50;;;;;22.10;98312.00;;;;5072702;28;20082;-64
2023/06/09 07:37:05;;;;;;;7.90;6.35;;;;;22.30;98317.00;;;;5071390;28;20056;-64
2023/06/09 07:39:35;;;;;;;9.50;6.60;;;;;22.40;98316.00;;;;5072310;28;20531;-64
2023/06/09 07:42:02;;;;;;;7.10;6.40;;;;;22.50;98312.00;;;;5071547;28;20032;-64
2023/06/09 07:44:29;;;;;;;7.18;6.45;;;;;22.50;98314.00;;;;5071549;28;20127;-64
2023/06/09 07:46:55;;;;;;;7.55;6.75;;;;;22.50;98320.00;;;;5071940;28;20044;-62
2023/06/09 07:49:22;;;;;;;6.75;6.07;;;;;22.60;98317.00;;;;5071696;28;20083;-64
2023/06/09 07:51:49;;;;;;;6.40;5.88;;;;;22.70;98323.00;;;;5070460;28;20072;-63
2023/06/09 07:54:16;;;;;;;7.13;6.35;;;;;22.80;98314.00;;;;5071371;28;20513;-64
2023/06/09 07:56:48;;;;;;;7.68;6.00;;;;;23.00;98313.00;;;;5071583;28;20124;-64
2023/06/09 07:59:18;;;;;;;6.75;6.05;;;;;23.00;98307.00;;;;5070327;28;20131;-64
2023/06/09 08:01:46;;;;;;;7.07;6.38;;;;;23.10;98309.00;;;;5053857;28;20098;-64
2023/06/09 08:04:13;;;;;;;9.80;5.97;;;;;23.20;98324.00;;;;5071612;28;20048;-64
2023/06/09 08:06:40;;;;;;;7.20;6.28;;;;;23.20;98315.00;;;;5071617;28;20110;-64
2023/06/09 08:09:08;;;;;;;6.40;5.60;;;;;23.30;98309.00;;;;5070469;28;20505;-64
2023/06/09 08:11:38;;;;;;;6.53;5.85;;;;;23.30;98316.00;;;;5070421;28;20037;-64
2023/06/09 08:14:06;;;;;;;7.55;6.18;;;;;23.40;98318.00;;;;5071525;28;20494;-64
2023/06/09 08:16:33;;;;;;;6.72;5.68;;;;;23.50;98315.00;;;;5070218;28;20047;-64
2023/06/09 08:19:00;;;;;;;6.45;5.85;;;;;23.70;98319.00;;;;5053544;28;20044;-64
2023/06/09 08:21:26;;;;;;;6.47;5.88;;;;;23.80;98311.00;;;;5070246;28;20048;-65
2023/06/09 08:23:53;;;;;;;8.63;7.72;;;;;23.90;98310.00;;;;5070013;28;20040;-64
2023/06/09 08:26:19;;;;;;;6.30;5.68;;;;;24.10;98307.00;;;;5071454;28;20051;-64
2023/06/09 08:28:46;;;;;;;7.10;5.78;;;;;24.40;98314.00;;;;5071788;28;20486;-64
2023/06/09 08:31:13;;;;;;;7.82;5.50;;;;;24.40;98299.00;;;;5070151;28;20076;-64
2023/06/09 08:33:39;;;;;;;9.57;5.32;;;;;24.60;98291.00;;;;5053650;28;20072;-64
2023/06/09 08:36:07;;;;;;;7.25;4.85;;;;;24.60;98286.00;;;;5069850;28;20173;-64
2023/06/09 08:38:35;;;;;;;5.75;5.25;;;;;24.60;98291.00;;;;5070090;28;20106;-64
2023/06/09 08:41:08;;;;;;;6.32;5.10;;;;;24.50;98292.00;;;;5070928;28;20397;-64
2023/06/09 08:43:35;;;;;;;;;;;;;24.50;98286.00;;;;5072178;28;20041;-65
2023/06/09 08:46:06;;;;;;;5.93;5.30;;;;;24.50;98285.00;;;;5071304;28;19944;-64
2023/06/09 08:48:35;;;;;;;5.82;4.65;;;;;24.70;98286.00;;;;5070456;28;20044;-63
2023/06/09 08:51:02;;;;;;;5.20;4.70;;;;;24.90;98274.00;;;;5071066;28;20409;-64
2023/06/09 08:53:29;;;;;;;6.40;4.90;;;;;25.10;98283.00;;;;5053446;28;20071;-64
2023/06/09 08:55:58;;;;;;;5.78;3.70;;;;;25.30;98278.00;;;;5070096;28;20123;-65
2023/06/09 08:58:26;;;;;;;3.63;3.33;;;;;25.40;98282.00;;;;5071507;28;20050;-64
2023/06/09 09:00:53;;;;;;;4.40;4.00;;;;;25.60;98282.00;;;;5069497;28;20468;-64
2023/06/09 09:03:20;;;;;;;4.90;3.95;;;;;25.70;98280.00;;;;5071213;28;20040;-65
2023/06/09 09:05:47;;;;;;;4.38;3.97;;;;;25.70;98279.00;;;;5072063;28;20090;-63
2023/06/09 09:08:14;;;;;;;3.88;3.55;;;;;25.80;98279.00;;;;5074345;28;20071;-66
2023/06/09 09:10:41;;;;;;;6.38;3.83;;;;;25.70;98270.00;;;;5073369;28;20090;-63
2023/06/09 09:13:10;;;;;;;3.75;3.45;;;;;26.00;98286.00;;;;5073230;28;20115;-66
2023/06/09 09:15:40;;;;;;;3.70;3.40;;;;;26.00;98285.00;;;;5074571;28;20463;-63
2023/06/09 09:18:10;;;;;;;4.10;3.70;;;;;26.10;98280.00;;;;5073408;28;20124;-63
2023/06/09 09:20:37;;;;;;;4.63;3.40;;;;;26.10;98282.00;;;;5074154;28;20436;-63
2023/06/09 09:23:07;;;;;;;5.43;3.65;;;;;26.20;98280.00;;;;5074505;28;20082;-63
2023/06/09 09:25:34;;;;;;;4.95;4.40;;;;;26.30;98279.00;;;;5073359;28;20409;-62
2023/06/09 09:28:09;;;;;;;6.32;4.00;;;;;26.40;98278.00;;;;5074454;28;20052;-63
2023/06/09 09:30:55;;;;;;;4.68;3.85;;;;;26.50;98281.00;;;;5074158;28;20408;-64
2023/06/09 09:33:27;;;;;;;4.70;4.18;;;;;26.50;98285.00;;;;5073515;28;20544;-62
2023/06/09 09:35:56;;;;;;;4.43;4.07;;;;;26.60;98279.00;;;;5074338;28;20052;-62
2023/06/09 09:38:25;;;;;;;4.93;3.60;;;;;26.80;98271.00;;;;5072922;28;20048;-63
2023/06/09 09:40:56;;;;;;;3.30;2.90;;;;;26.70;98275.00;;;;5072976;28;20129;-62
2023/06/09 09:43:30;;;;;;;4.75;3.63;;;;;26.80;98273.00;;;;5058809;28;20071;-64
2023/06/09 09:46:04;;;;;;;3.80;3.05;;;;;27.00;98280.00;;;;5058174;28;20075;-65
2023/06/09 09:48:33;;;;;;;4.13;3.72;;;;;26.90;98271.00;;;;5056137;28;20045;-64
2023/06/09 09:51:00;;;;;;;2.85;2.65;;;;;27.00;98281.00;;;;5056003;28;20060;-63
2023/06/09 09:53:27;;;;;;;3.47;3.17;;;;;27.20;98271.00;;;;5073779;28;20596;-64
2023/06/09 09:55:56;;;;;;;3.97;3.58;;;;;27.20;98267.00;;;;5071950;28;20048;-61
2023/06/09 09:58:31;;;;;;;3.60;3.25;;;;;27.30;98279.00;;;;5072306;28;20071;-61
2023/06/09 10:01:02;;;;;;;3.83;3.15;;;;;27.10;98272.00;;;;5055686;28;20072;-62
2023/06/09 10:03:31;;;;;;;3.50;3.20;;;;;27.10;98263.00;;;;5072646;28;20102;-64
2023/06/09 10:06:00;;;;;;;3.70;3.38;;;;;27.00;98280.00;;;;5072455;28;20048;-65
2023/06/09 10:08:28;;;;;;;4.97;3.35;;;;;27.00;98264.00;;;;5073647;28;20044;-60
2023/06/09 10:10:56;;;;;;;5.70;3.40;;;;;27.20;98278.00;;;;5072768;28;20079;-60
2023/06/09 10:13:26;;;;;;;3.78;3.40;;;;;27.20;98274.00;;;;5072644;28;20042;-61
2023/06/09 10:15:53;;;;;;;3.45;3.15;;;;;27.20;98265.00;;;;5055824;28;20106;-62
2023/06/09 10:18:21;;;;;;;3.33;2.95;;;;;27.40;98269.00;;;;5073351;28;20167;-62
2023/06/09 10:20:50;;;;;;;3.65;2.72;;;;;27.50;98261.00;;;;5071792;28;20040;-63
2023/06/09 10:23:17;;;;;;;3.15;2.85;;;;;27.60;98260.00;;;;5073646;28;20135;-62
2023/06/09 10:25:50;;;;;;;3.47;2.70;;;;;27.70;98266.00;;;;5073441;28;20648;-63
2023/06/09 10:28:18;;;;;;;4.20;3.58;;;;;27.40;98261.00;;;;5073465;28;20119;-62
2023/06/09 10:30:47;;;;;;;4.10;3.22;;;;;27.40;98263.00;;;;5072132;28;20374;-62
2023/06/09 10:33:39;;;;;;;3.55;3.20;;;;;27.70;98254.00;;;;5072851;28;20565;-61
2023/06/09 10:36:05;;;;;;;4.15;3.47;;;;;27.70;98261.00;;;;5073087;28;20044;-62
2023/06/09 10:38:43;;;;;;;4.68;3.60;;;;;27.70;98261.00;;;;5072279;28;20050;-62
2023/06/09 10:41:18;;;;;;;3.97;3.58;;;;;27.80;98261.00;;;;5072262;28;20664;-64
2023/06/09 10:43:56;;;;;;;4.32;3.88;;;;;27.90;98264.00;;;;5073708;28;20048;-62
2023/06/09 10:46:42;;;;;;;4.13;3.72;;;;;27.80;98255.00;;;;5074294;28;20040;-63
2023/06/09 10:49:24;;;;;;;6.50;4.07;;;;;27.80;98259.00;;;;5073432;28;20063;-63
2023/06/09 10:51:52;;;;;;;6.47;3.47;;;;;27.90;98258.00;;;;5072696;28;20067;-62
2023/06/09 10:54:23;;;;;;;4.78;3.28;;;;;28.10;98244.00;;;;5056707;28;20049;-63
2023/06/09 10:57:00;;;;;;;5.38;4.10;;;;;28.10;98253.00;;;;5074181;28;20079;-63
2023/06/09 10:59:26;;;;;;;4.05;3.67;;;;;28.00;98247.00;;;;5073034;28;20044;-64
2023/06/09 11:02:02;;;;;;;5.15;3.33;;;;;28.20;98248.00;;;;5072203;28;20040;-62
2023/06/09 11:04:43;;;;;;;4.65;3.50;;;;;28.20;98252.00;;;;5072824;28;20044;-63
2023/06/09 11:07:17;;;;;;;4.45;4.05;;;;;28.20;98245.00;;;;5074652;28;20106;-62
2023/06/09 11:09:47;;;;;;;4.03;3.63;;;;;28.30;98242.00;;;;5071827;28;20045;-63
2023/06/09 11:12:35;;;;;;;4.35;3.95;;;;;28.40;98252.00;;;;5073521;28;20040;-63
2023/06/09 11:15:03;;;;;;;9.52;4.75;;;;;28.20;98253.00;;;;5071815;28;20515;-63
2023/06/09 11:17:34;;;;;;;4.13;3.83;;;;;28.30;98251.00;;;;5074011;28;20040;-64
2023/06/09 11:20:07;;;;;;;4.55;4.10;;;;;28.60;98249.00;;;;5073523;28;20049;-64
2023/06/09 11:22:59;;;;;;;4.45;3.88;;;;;28.70;98252.00;;;;5072161;28;20047;-63
2023/06/09 11:25:27;;;;;;;4.28;3.63;;;;;28.60;98235.00;;;;5072974;28;20048;-61
2023/06/09 11:27:57;;;;;;;4.03;3.70;;;;;28.50;98237.00;;;;5072888;28;20059;-63
2023/06/09 11:30:29;;;;;;;4.55;4.03;;;;;28.40;98233.00;;;;5073039;28;20525;-63
2023/06/09 11:32:58;;;;;;;4.90;3.92;;;;;28.70;98239.00;;;;5071756;28;20048;-63
2023/06/09 11:35:31;;;;;;;4.07;3.65;;;;;28.70;98234.00;;;;5072511;28;20427;-63
2023/06/09 11:37:59;;;;;;;;;;;;;28.80;98224.00;;;;5071660;28;20488;-63
2023/06/09 11:40:28;;;;;;;3.95;3.55;;;;;29.00;98227.00;;;;5072845;28;20015;-62
2023/06/09 11:42:56;;;;;;;4.97;4.03;;;;;29.10;98219.00;;;;5073977;28;20123;-64
2023/06/09 11:45:24;;;;;;;5.13;3.65;;;;;29.20;98230.00;;;;5073308;28;20048;-64
2023/06/09 11:47:56;;;;;;;3.58;3.28;;;;;29.20;98230.00;;;;5072845;28;20090;-65
2023/06/09 11:50:25;;;;;;;6.13;4.00;;;;;29.40;98230.00;;;;5072573;28;20049;-63
2023/06/09 11:53:06;;;;;;;4.32;3.92;;;;;29.50;98225.00;;;;5073354;28;20115;-61
2023/06/09 11:55:32;;;;;;;7.22;6.07;;;;;29.60;98230.00;;;;5073266;28;20072;-63
2023/06/09 11:58:02;;;;;;;5.60;4.07;;;;;29.70;98224.00;;;;5074892;28;20047;-62
2023/06/09 12:00:30;;;;;;;4.65;3.70;;;;;29.70;98222.00;;;;5073539;28;20104;-62
2023/06/09 12:02:57;;;;;;;3.95;3.40;;;;;29.80;98226.00;;;;5074381;28;20127;-64
2023/06/09 12:05:28;;;;;;;4.70;3.63;;;;;29.90;98220.00;;;;5073680;28;20045;-62
2023/06/09 12:07:55;;;;;;;3.67;3.28;;;;;29.80;98222.00;;;;5073602;28;20052;-62
2023/06/09 12:10:28;;;;;;;3.95;3.35;;;;;29.80;98219.00;;;;5073377;28;20036;-64
2023/06/09 12:12:57;;;;;;;4.63;3.85;;;;;29.60;98221.00;;;;5073305;28;20040;-60
2023/06/09 12:15:27;;;;;;;3.53;3.30;;;;;29.40;98220.00;;;;5073305;28;20411;-61
2023/06/09 12:17:56;;;;;;;4.15;3.72;;;;;29.30;98215.00;;;;5073613;28;20071;-61
2023/06/09 12:20:32;;;;;;;5.95;3.67;;;;;29.40;98214.00;;;;5073324;28;20052;-61
2023/06/09 12:23:06;;;;;;;4.43;3.50;;;;;29.50;98212.00;;;;5072648;28;20047;-60
2023/06/09 12:25:37;;;;;;;4.07;3.78;;;;;29.60;98202.00;;;;5072884;28;20041;-61